sensor_id;sensor_type;location;lat;lon;timestamp;temperature;humidity
17252;DHT22;8742;51.716;8.790;2023-02-02T00:02:14;5.20;99.90
17252;DHT22;8742;51.716;8.790;2023-02-02T00:04:41;5.20;99.90
17252;DHT22;8742;51.716;8.790;2023-02-02T00:07:08;5.20;99.90
17252;DHT22;8742;51.716;8.790;2023-02-02T00:09:35;5.20;99.90
17252;DHT22;8742;51.716;8.790;2023-02-02T00:12:01;5.20;99.90
17252;DHT22;8742;51.716;8.790;2023-02-02T00:14:30;5.30;99.90
17252;DHT22;8742;51.716;8.790;2023-02-02T00:16:57;5.30;99.90
17252;DHT22;8742;51.716;8.790;2023-02-02T00:19:25;5.30;99.90
17252;DHT22;8742;51.716;8.790;2023-02-02T00:21:53;5.30;99.90
17252;DHT22;8742;51.716;8.790;2023-02-02T00:24:20;5.30;99.90
17252;DHT22;8742;51.716;8.790;2023-02-02T00:26:49;5.30;99.90
17252;DHT22;8742;51.716;8.790;2023-02-02T00:29:19;5.30;99.90
17252;DHT22;8742;51.716;8.790;2023-02-02T00:31:47;5.30;99.90
17252;DHT22;8742;51.716;8.790;2023-02-02T00:34:15;5.30;99.90
17252;DHT22;8742;51.716;8.790;2023-02-02T00:36:42;5.30;99.90
17252;DHT22;8742;51.716;8.790;2023-02-02T00:39:10;5.30;99.90
17252;DHT22;8742;51.716;8.790;2023-02-02T00:41:38;5.30;99.90
17252;DHT22;8742;51.716;8.790;2023-02-02T00:44:05;5.30;99.90
17252;DHT22;8742;51.716;8.790;2023-02-02T00:46:51;5.30;99.90
17252;DHT22;8742;51.716;8.790;2023-02-02T00:49:17;5.30;99.90
17252;DHT22;8742;51.716;8.790;2023-02-02T00:51:44;5.30;99.90
17252;DHT22;8742;51.716;8.790;2023-02-02T00:54:11;5.30;99.90
17252;DHT22;8742;51.716;8.790;2023-02-02T00:56:38;5.30;99.90
17252;DHT22;8742;51.716;8.790;2023-02-02T00:59:05;5.30;99.90
17252;DHT22;8742;51.716;8.790;2023-02-02T01:01:32;5.30;99.90
17252;DHT22;8742;51.716;8.790;2023-02-02T01:04:00;5.30;99.90
17252;DHT22;8742;51.716;8.790;2023-02-02T01:06:27;5.20;99.90
17252;DHT22;8742;51.716;8.790;2023-02-02T01:08:54;5.20;99.90
17252;DHT22;8742;51.716;8.790;2023-02-02T01:11:21;5.20;99.90
17252;DHT22;8742;51.716;8.790;2023-02-02T01:13:50;5.20;99.90
17252;DHT22;8742;51.716;8.790;2023-02-02T01:16:17;5.10;99.90
17252;DHT22;8742;51.716;8.790;2023-02-02T01:18:47;5.10;99.90
17252;DHT22;8742;51.716;8.790;2023-02-02T01:21:15;5.10;99.90
17252;DHT22;8742;51.716;8.790;2023-02-02T01:23:42;5.10;99.90
17252;DHT22;8742;51.716;8.790;2023-02-02T01:26:10;5.10;99.90
17252;DHT22;8742;51.716;8.790;2023-02-02T01:28:37;5.00;99.90
17252;DHT22;8742;51.716;8.790;2023-02-02T01:31:06;5.00;99.90
17252;DHT22;8742;51.716;8.790;2023-02-02T01:33:33;5.00;99.90
17252;DHT22;8742;51.716;8.790;2023-02-02T01:36:03;5.00;99.90
17252;DHT22;8742;51.716;8.790;2023-02-02T01:38:32;5.00;99.90
17252;DHT22;8742;51.716;8.790;2023-02-02T01:40:59;5.00;99.90
17252;DHT22;8742;51.716;8.790;2023-02-02T01:43:28;5.00;99.90
17252;DHT22;8742;51.716;8.790;2023-02-02T01:45:57;5.00;99.90
17252;DHT22;8742;51.716;8.790;2023-02-02T01:48:27;4.90;99.90
17252;DHT22;8742;51.716;8.790;2023-02-02T01:50:59;4.90;99.90
17252;DHT22;8742;51.716;8.790;2023-02-02T01:53:27;4.90;99.90
17252;DHT22;8742;51.716;8.790;2023-02-02T01:55:57;4.90;99.90
17252;DHT22;8742;51.716;8.790;2023-02-02T01:58:27;4.80;99.90
17252;DHT22;8742;51.716;8.790;2023-02-02T02:00:54;4.80;99.90
17252;DHT22;8742;51.716;8.790;2023-02-02T02:03:24;4.70;99.90
17252;DHT22;8742;51.716;8.790;2023-02-02T02:05:53;4.60;99.90
17252;DHT22;8742;51.716;8.790;2023-02-02T02:08:22;4.60;99.90
17252;DHT22;8742;51.716;8.790;2023-02-02T02:10:50;4.60;99.90
17252;DHT22;8742;51.716;8.790;2023-02-02T02:13:19;4.50;99.90
17252;DHT22;8742;51.716;8.790;2023-02-02T02:16:03;4.50;99.90
17252;DHT22;8742;51.716;8.790;2023-02-02T02:18:49;4.50;99.90
17252;DHT22;8742;51.716;8.790;2023-02-02T02:21:31;4.50;99.90
17252;DHT22;8742;51.716;8.790;2023-02-02T02:28:17;4.40;99.90
17252;DHT22;8742;51.716;8.790;2023-02-02T02:31:14;4.40;99.90
17252;DHT22;8742;51.716;8.790;2023-02-02T02:33:49;4.40;99.90
17252;DHT22;8742;51.716;8.790;2023-02-02T02:36:20;4.40;99.90
17252;DHT22;8742;51.716;8.790;2023-02-02T02:38:58;4.40;99.90
17252;DHT22;8742;51.716;8.790;2023-02-02T02:41:28;4.50;99.90
17252;DHT22;8742;51.716;8.790;2023-02-02T02:44:00;4.50;99.90
17252;DHT22;8742;51.716;8.790;2023-02-02T02:46:27;4.50;99.90
17252;DHT22;8742;51.716;8.790;2023-02-02T02:48:57;4.60;99.90
17252;DHT22;8742;51.716;8.790;2023-02-02T02:51:44;4.70;99.90
17252;DHT22;8742;51.716;8.790;2023-02-02T02:54:12;4.70;99.90
17252;DHT22;8742;51.716;8.790;2023-02-02T02:56:57;4.70;99.90
17252;DHT22;8742;51.716;8.790;2023-02-02T02:59:35;4.80;99.90
17252;DHT22;8742;51.716;8.790;2023-02-02T03:02:14;4.80;99.90
17252;DHT22;8742;51.716;8.790;2023-02-02T03:04:54;4.80;99.90
17252;DHT22;8742;51.716;8.790;2023-02-02T03:07:27;4.90;99.90
17252;DHT22;8742;51.716;8.790;2023-02-02T03:09:56;4.90;99.90
17252;DHT22;8742;51.716;8.790;2023-02-02T03:12:25;5.00;99.90
17252;DHT22;8742;51.716;8.790;2023-02-02T03:14:52;5.00;99.90
17252;DHT22;8742;51.716;8.790;2023-02-02T03:17:19;5.10;99.90
17252;DHT22;8742;51.716;8.790;2023-02-02T03:19:47;5.10;99.90
17252;DHT22;8742;51.716;8.790;2023-02-02T03:22:14;5.10;99.90
17252;DHT22;8742;51.716;8.790;2023-02-02T03:24:41;5.10;99.90
17252;DHT22;8742;51.716;8.790;2023-02-02T03:27:08;5.20;99.90
17252;DHT22;8742;51.716;8.790;2023-02-02T03:29:36;5.20;99.90
17252;DHT22;8742;51.716;8.790;2023-02-02T03:32:03;5.20;99.90
17252;DHT22;8742;51.716;8.790;2023-02-02T03:34:30;5.20;99.90
17252;DHT22;8742;51.716;8.790;2023-02-02T03:36:58;5.20;99.90
17252;DHT22;8742;51.716;8.790;2023-02-02T03:39:24;5.20;99.90
17252;DHT22;8742;51.716;8.790;2023-02-02T03:41:51;5.20;99.90
17252;DHT22;8742;51.716;8.790;2023-02-02T03:44:18;5.30;99.90
17252;DHT22;8742;51.716;8.790;2023-02-02T03:46:45;5.30;99.90
17252;DHT22;8742;51.716;8.790;2023-02-02T03:49:12;5.30;99.90
17252;DHT22;8742;51.716;8.790;2023-02-02T03:51:38;5.30;99.90
17252;DHT22;8742;51.716;8.790;2023-02-02T03:54:08;5.30;99.90
17252;DHT22;8742;51.716;8.790;2023-02-02T03:56:35;5.30;99.90
17252;DHT22;8742;51.716;8.790;2023-02-02T03:59:02;5.30;99.90
17252;DHT22;8742;51.716;8.790;2023-02-02T04:01:30;5.30;99.90
17252;DHT22;8742;51.716;8.790;2023-02-02T04:03:57;5.30;99.90
17252;DHT22;8742;51.716;8.790;2023-02-02T04:06:25;5.30;99.90
17252;DHT22;8742;51.716;8.790;2023-02-02T04:08:52;5.30;99.90
17252;DHT22;8742;51.716;8.790;2023-02-02T04:11:20;5.30;99.90
17252;DHT22;8742;51.716;8.790;2023-02-02T04:13:47;5.30;99.90
17252;DHT22;8742;51.716;8.790;2023-02-02T04:16:13;5.30;99.90
17252;DHT22;8742;51.716;8.790;2023-02-02T04:18:40;5.30;99.90
17252;DHT22;8742;51.716;8.790;2023-02-02T04:21:07;5.30;99.90
17252;DHT22;8742;51.716;8.790;2023-02-02T04:23:35;5.30;99.90
17252;DHT22;8742;51.716;8.790;2023-02-02T04:26:02;5.30;99.90
17252;DHT22;8742;51.716;8.790;2023-02-02T04:28:31;5.30;99.90
17252;DHT22;8742;51.716;8.790;2023-02-02T04:30:57;5.30;99.90
17252;DHT22;8742;51.716;8.790;2023-02-02T04:33:26;5.30;99.90
17252;DHT22;8742;51.716;8.790;2023-02-02T04:35:53;5.30;99.90
17252;DHT22;8742;51.716;8.790;2023-02-02T04:38:21;5.30;99.90
17252;DHT22;8742;51.716;8.790;2023-02-02T04:40:48;5.30;99.90
17252;DHT22;8742;51.716;8.790;2023-02-02T04:43:15;5.30;99.90
17252;DHT22;8742;51.716;8.790;2023-02-02T04:45:43;5.30;99.90
17252;DHT22;8742;51.716;8.790;2023-02-02T04:48:10;5.30;99.90
17252;DHT22;8742;51.716;8.790;2023-02-02T04:50:37;5.30;99.90
17252;DHT22;8742;51.716;8.790;2023-02-02T04:53:04;5.30;99.90
17252;DHT22;8742;51.716;8.790;2023-02-02T04:55:35;5.30;99.90
17252;DHT22;8742;51.716;8.790;2023-02-02T04:58:03;5.30;99.90
17252;DHT22;8742;51.716;8.790;2023-02-02T05:00:30;5.40;99.90
17252;DHT22;8742;51.716;8.790;2023-02-02T05:02:58;5.30;99.90
17252;DHT22;8742;51.716;8.790;2023-02-02T05:05:25;5.30;99.90
17252;DHT22;8742;51.716;8.790;2023-02-02T05:07:52;5.30;99.90
17252;DHT22;8742;51.716;8.790;2023-02-02T05:10:19;5.30;99.90
17252;DHT22;8742;51.716;8.790;2023-02-02T05:12:46;5.30;99.90
17252;DHT22;8742;51.716;8.790;2023-02-02T05:15:13;5.30;99.90
17252;DHT22;8742;51.716;8.790;2023-02-02T05:17:39;5.30;99.90
17252;DHT22;8742;51.716;8.790;2023-02-02T05:20:09;5.30;99.90
17252;DHT22;8742;51.716;8.790;2023-02-02T05:22:36;5.30;99.90
17252;DHT22;8742;51.716;8.790;2023-02-02T05:25:03;5.30;99.90
17252;DHT22;8742;51.716;8.790;2023-02-02T05:27:30;5.20;99.90
17252;DHT22;8742;51.716;8.790;2023-02-02T05:29:57;5.20;99.90
17252;DHT22;8742;51.716;8.790;2023-02-02T05:32:24;5.20;99.90
17252;DHT22;8742;51.716;8.790;2023-02-02T05:34:52;5.20;99.90
17252;DHT22;8742;51.716;8.790;2023-02-02T05:37:20;5.20;99.90
17252;DHT22;8742;51.716;8.790;2023-02-02T05:39:47;5.10;99.90
17252;DHT22;8742;51.716;8.790;2023-02-02T05:42:16;5.10;99.90
17252;DHT22;8742;51.716;8.790;2023-02-02T05:44:43;5.10;99.90
17252;DHT22;8742;51.716;8.790;2023-02-02T05:47:10;5.10;99.90
17252;DHT22;8742;51.716;8.790;2023-02-02T05:49:36;5.10;99.90
17252;DHT22;8742;51.716;8.790;2023-02-02T05:52:03;5.10;99.90
17252;DHT22;8742;51.716;8.790;2023-02-02T05:54:32;5.10;99.90
17252;DHT22;8742;51.716;8.790;2023-02-02T05:56:59;5.10;99.90
17252;DHT22;8742;51.716;8.790;2023-02-02T05:59:27;5.10;99.90
17252;DHT22;8742;51.716;8.790;2023-02-02T06:01:54;5.10;99.90
17252;DHT22;8742;51.716;8.790;2023-02-02T06:04:21;5.10;99.90
17252;DHT22;8742;51.716;8.790;2023-02-02T06:06:48;5.10;99.90
17252;DHT22;8742;51.716;8.790;2023-02-02T06:09:15;5.10;99.90
17252;DHT22;8742;51.716;8.790;2023-02-02T06:11:44;5.10;99.90
17252;DHT22;8742;51.716;8.790;2023-02-02T06:14:12;5.10;99.90
17252;DHT22;8742;51.716;8.790;2023-02-02T06:16:39;5.10;99.90
17252;DHT22;8742;51.716;8.790;2023-02-02T06:19:05;5.10;99.90
17252;DHT22;8742;51.716;8.790;2023-02-02T06:21:32;5.10;99.90
17252;DHT22;8742;51.716;8.790;2023-02-02T06:23:59;5.10;99.90
17252;DHT22;8742;51.716;8.790;2023-02-02T06:26:26;5.10;99.90
17252;DHT22;8742;51.716;8.790;2023-02-02T06:28:55;5.00;99.90
17252;DHT22;8742;51.716;8.790;2023-02-02T06:31:22;5.00;99.90
17252;DHT22;8742;51.716;8.790;2023-02-02T06:33:53;5.10;99.90
17252;DHT22;8742;51.716;8.790;2023-02-02T06:36:20;5.10;99.90
17252;DHT22;8742;51.716;8.790;2023-02-02T06:38:48;5.00;99.90
17252;DHT22;8742;51.716;8.790;2023-02-02T06:41:15;5.00;99.90
17252;DHT22;8742;51.716;8.790;2023-02-02T06:43:43;5.00;99.90
17252;DHT22;8742;51.716;8.790;2023-02-02T06:46:11;5.00;99.90
17252;DHT22;8742;51.716;8.790;2023-02-02T06:48:38;5.00;99.90
17252;DHT22;8742;51.716;8.790;2023-02-02T06:51:06;5.00;99.90
17252;DHT22;8742;51.716;8.790;2023-02-02T06:53:33;5.00;99.90
17252;DHT22;8742;51.716;8.790;2023-02-02T06:56:02;5.00;99.90
17252;DHT22;8742;51.716;8.790;2023-02-02T06:58:29;5.00;99.90
17252;DHT22;8742;51.716;8.790;2023-02-02T07:01:01;5.00;99.90
17252;DHT22;8742;51.716;8.790;2023-02-02T07:03:31;4.90;99.90
17252;DHT22;8742;51.716;8.790;2023-02-02T07:05:58;4.90;99.90
17252;DHT22;8742;51.716;8.790;2023-02-02T07:08:25;4.80;99.90
17252;DHT22;8742;51.716;8.790;2023-02-02T07:10:51;4.80;99.90
17252;DHT22;8742;51.716;8.790;2023-02-02T07:13:18;4.80;99.90
17252;DHT22;8742;51.716;8.790;2023-02-02T07:15:45;4.70;99.90
17252;DHT22;8742;51.716;8.790;2023-02-02T07:18:13;4.70;99.90
17252;DHT22;8742;51.716;8.790;2023-02-02T07:20:41;4.60;99.90
17252;DHT22;8742;51.716;8.790;2023-02-02T07:23:08;4.60;99.90
17252;DHT22;8742;51.716;8.790;2023-02-02T07:25:35;4.60;99.90
17252;DHT22;8742;51.716;8.790;2023-02-02T07:28:01;4.50;99.90
17252;DHT22;8742;51.716;8.790;2023-02-02T07:30:28;4.40;99.90
17252;DHT22;8742;51.716;8.790;2023-02-02T07:32:55;4.40;99.90
17252;DHT22;8742;51.716;8.790;2023-02-02T07:35:23;4.40;99.90
17252;DHT22;8742;51.716;8.790;2023-02-02T07:37:54;4.40;99.90
17252;DHT22;8742;51.716;8.790;2023-02-02T07:40:21;4.40;99.90
17252;DHT22;8742;51.716;8.790;2023-02-02T07:42:48;4.30;99.90
17252;DHT22;8742;51.716;8.790;2023-02-02T07:45:15;4.30;99.90
17252;DHT22;8742;51.716;8.790;2023-02-02T07:47:42;4.30;99.90
17252;DHT22;8742;51.716;8.790;2023-02-02T07:50:09;4.30;99.90
17252;DHT22;8742;51.716;8.790;2023-02-02T07:52:36;4.20;99.90
17252;DHT22;8742;51.716;8.790;2023-02-02T07:55:06;4.20;99.90
17252;DHT22;8742;51.716;8.790;2023-02-02T07:57:33;4.20;99.90
17252;DHT22;8742;51.716;8.790;2023-02-02T08:00:00;4.10;99.90
17252;DHT22;8742;51.716;8.790;2023-02-02T08:02:26;4.10;99.90
17252;DHT22;8742;51.716;8.790;2023-02-02T08:04:53;4.10;99.90
17252;DHT22;8742;51.716;8.790;2023-02-02T08:07:20;4.00;99.90
17252;DHT22;8742;51.716;8.790;2023-02-02T08:09:49;4.00;99.90
17252;DHT22;8742;51.716;8.790;2023-02-02T08:12:18;4.00;99.90
17252;DHT22;8742;51.716;8.790;2023-02-02T08:14:45;4.00;99.90
17252;DHT22;8742;51.716;8.790;2023-02-02T08:17:13;4.00;99.90
17252;DHT22;8742;51.716;8.790;2023-02-02T08:19:40;4.00;99.90
17252;DHT22;8742;51.716;8.790;2023-02-02T08:22:06;4.00;99.90
17252;DHT22;8742;51.716;8.790;2023-02-02T08:24:33;4.00;99.90
17252;DHT22;8742;51.716;8.790;2023-02-02T08:27:05;4.00;99.90
17252;DHT22;8742;51.716;8.790;2023-02-02T08:29:33;3.90;99.90
17252;DHT22;8742;51.716;8.790;2023-02-02T08:32:00;3.90;99.90
17252;DHT22;8742;51.716;8.790;2023-02-02T08:34:27;3.90;99.90
17252;DHT22;8742;51.716;8.790;2023-02-02T08:36:54;3.90;99.90
17252;DHT22;8742;51.716;8.790;2023-02-02T08:39:21;3.80;99.90
17252;DHT22;8742;51.716;8.790;2023-02-02T08:41:49;3.80;99.90
17252;DHT22;8742;51.716;8.790;2023-02-02T08:44:16;3.80;99.90
17252;DHT22;8742;51.716;8.790;2023-02-02T08:46:44;3.80;99.90
17252;DHT22;8742;51.716;8.790;2023-02-02T08:49:11;3.80;99.90
17252;DHT22;8742;51.716;8.790;2023-02-02T08:51:38;3.70;99.90
17252;DHT22;8742;51.716;8.790;2023-02-02T08:54:05;3.70;99.90
17252;DHT22;8742;51.716;8.790;2023-02-02T08:56:32;3.70;99.90
17252;DHT22;8742;51.716;8.790;2023-02-02T08:58:58;3.70;99.90
17252;DHT22;8742;51.716;8.790;2023-02-02T09:01:28;3.80;99.90
17252;DHT22;8742;51.716;8.790;2023-02-02T09:03:58;3.70;99.90
17252;DHT22;8742;51.716;8.790;2023-02-02T09:06:27;3.80;99.90
17252;DHT22;8742;51.716;8.790;2023-02-02T09:08:54;3.80;99.90
17252;DHT22;8742;51.716;8.790;2023-02-02T09:11:21;3.80;99.90
17252;DHT22;8742;51.716;8.790;2023-02-02T09:13:53;3.80;99.90
17252;DHT22;8742;51.716;8.790;2023-02-02T09:16:20;3.80;99.90
17252;DHT22;8742;51.716;8.790;2023-02-02T09:18:48;3.80;99.90
17252;DHT22;8742;51.716;8.790;2023-02-02T09:21:17;3.80;99.90
17252;DHT22;8742;51.716;8.790;2023-02-02T09:23:46;3.80;99.90
17252;DHT22;8742;51.716;8.790;2023-02-02T09:26:14;3.80;99.90
17252;DHT22;8742;51.716;8.790;2023-02-02T09:28:44;3.80;99.90
17252;DHT22;8742;51.716;8.790;2023-02-02T09:31:11;3.80;99.90
17252;DHT22;8742;51.716;8.790;2023-02-02T09:33:39;3.80;99.90
17252;DHT22;8742;51.716;8.790;2023-02-02T09:36:07;3.80;99.90
17252;DHT22;8742;51.716;8.790;2023-02-02T09:38:36;3.80;99.90
17252;DHT22;8742;51.716;8.790;2023-02-02T09:41:24;3.80;99.90
17252;DHT22;8742;51.716;8.790;2023-02-02T09:44:04;3.80;99.90
17252;DHT22;8742;51.716;8.790;2023-02-02T09:46:44;3.90;99.90
17252;DHT22;8742;51.716;8.790;2023-02-02T09:49:17;3.90;99.90
17252;DHT22;8742;51.716;8.790;2023-02-02T09:51:50;3.90;99.90
17252;DHT22;8742;51.716;8.790;2023-02-02T09:54:26;3.90;99.90
17252;DHT22;8742;51.716;8.790;2023-02-02T09:56:56;4.00;99.90
17252;DHT22;8742;51.716;8.790;2023-02-02T09:59:28;3.90;99.90
17252;DHT22;8742;51.716;8.790;2023-02-02T10:02:04;4.00;99.90
17252;DHT22;8742;51.716;8.790;2023-02-02T10:04:35;4.00;99.90
17252;DHT22;8742;51.716;8.790;2023-02-02T10:07:06;4.00;99.90
17252;DHT22;8742;51.716;8.790;2023-02-02T10:09:39;4.10;99.90
17252;DHT22;8742;51.716;8.790;2023-02-02T10:12:18;4.10;99.90
17252;DHT22;8742;51.716;8.790;2023-02-02T10:14:52;4.10;99.90
17252;DHT22;8742;51.716;8.790;2023-02-02T10:17:31;4.10;99.90
17252;DHT22;8742;51.716;8.790;2023-02-02T10:20:13;4.20;99.90
17252;DHT22;8742;51.716;8.790;2023-02-02T10:22:44;4.20;99.90
17252;DHT22;8742;51.716;8.790;2023-02-02T10:25:15;4.20;99.90
17252;DHT22;8742;51.716;8.790;2023-02-02T10:27:46;4.20;99.90
17252;DHT22;8742;51.716;8.790;2023-02-02T10:30:18;4.20;99.90
17252;DHT22;8742;51.716;8.790;2023-02-02T10:32:48;4.30;99.90
17252;DHT22;8742;51.716;8.790;2023-02-02T10:35:34;4.30;99.90
17252;DHT22;8742;51.716;8.790;2023-02-02T10:38:10;4.40;99.90
17252;DHT22;8742;51.716;8.790;2023-02-02T10:40:50;4.40;99.90
17252;DHT22;8742;51.716;8.790;2023-02-02T10:43:43;4.40;99.90
17252;DHT22;8742;51.716;8.790;2023-02-02T10:46:16;4.40;99.90
17252;DHT22;8742;51.716;8.790;2023-02-02T10:48:47;4.40;99.90
17252;DHT22;8742;51.716;8.790;2023-02-02T10:51:19;4.50;99.90
17252;DHT22;8742;51.716;8.790;2023-02-02T10:53:51;4.50;99.90
17252;DHT22;8742;51.716;8.790;2023-02-02T10:56:23;4.50;99.90
17252;DHT22;8742;51.716;8.790;2023-02-02T10:58:56;4.50;99.90
17252;DHT22;8742;51.716;8.790;2023-02-02T11:01:25;4.50;99.90
17252;DHT22;8742;51.716;8.790;2023-02-02T11:03:52;4.50;99.90
17252;DHT22;8742;51.716;8.790;2023-02-02T11:06:38;4.50;99.90
17252;DHT22;8742;51.716;8.790;2023-02-02T11:09:20;4.50;99.90
17252;DHT22;8742;51.716;8.790;2023-02-02T11:11:51;4.50;99.90
17252;DHT22;8742;51.716;8.790;2023-02-02T11:14:27;4.50;99.90
17252;DHT22;8742;51.716;8.790;2023-02-02T11:17:03;4.50;99.90
17252;DHT22;8742;51.716;8.790;2023-02-02T11:19:32;4.50;99.90
17252;DHT22;8742;51.716;8.790;2023-02-02T11:22:01;4.50;99.90
17252;DHT22;8742;51.716;8.790;2023-02-02T11:24:30;4.50;99.90
17252;DHT22;8742;51.716;8.790;2023-02-02T11:27:05;4.50;99.90
17252;DHT22;8742;51.716;8.790;2023-02-02T11:29:41;4.50;99.90
17252;DHT22;8742;51.716;8.790;2023-02-02T11:32:22;4.50;99.90
17252;DHT22;8742;51.716;8.790;2023-02-02T11:35:12;4.60;99.90
17252;DHT22;8742;51.716;8.790;2023-02-02T11:37:52;4.60;99.90
17252;DHT22;8742;51.716;8.790;2023-02-02T11:40:26;4.60;99.90
17252;DHT22;8742;51.716;8.790;2023-02-02T11:42:55;4.60;99.90
17252;DHT22;8742;51.716;8.790;2023-02-02T11:45:28;4.60;99.90
17252;DHT22;8742;51.716;8.790;2023-02-02T11:48:00;4.60;99.90
17252;DHT22;8742;51.716;8.790;2023-02-02T11:50:27;4.60;99.90
17252;DHT22;8742;51.716;8.790;2023-02-02T11:52:54;4.70;99.90
17252;DHT22;8742;51.716;8.790;2023-02-02T11:55:26;4.70;99.90
17252;DHT22;8742;51.716;8.790;2023-02-02T11:58:19;4.70;99.90
17252;DHT22;8742;51.716;8.790;2023-02-02T12:00:50;4.70;99.90
17252;DHT22;8742;51.716;8.790;2023-02-02T12:03:29;4.70;99.90
17252;DHT22;8742;51.716;8.790;2023-02-02T12:05:56;4.70;99.90
17252;DHT22;8742;51.716;8.790;2023-02-02T12:08:23;4.70;99.90
17252;DHT22;8742;51.716;8.790;2023-02-02T12:10:55;4.70;99.90
17252;DHT22;8742;51.716;8.790;2023-02-02T12:13:42;4.70;99.90
17252;DHT22;8742;51.716;8.790;2023-02-02T12:16:22;4.70;99.90
17252;DHT22;8742;51.716;8.790;2023-02-02T12:19:08;4.70;99.90
17252;DHT22;8742;51.716;8.790;2023-02-02T12:21:48;4.70;99.90
17252;DHT22;8742;51.716;8.790;2023-02-02T12:24:26;4.70;99.90
17252;DHT22;8742;51.716;8.790;2023-02-02T12:27:02;4.70;99.90
17252;DHT22;8742;51.716;8.790;2023-02-02T12:30:06;4.70;99.90
17252;DHT22;8742;51.716;8.790;2023-02-02T12:32:46;4.70;99.90
17252;DHT22;8742;51.716;8.790;2023-02-02T12:35:33;4.70;99.90
17252;DHT22;8742;51.716;8.790;2023-02-02T12:38:13;4.70;99.90
17252;DHT22;8742;51.716;8.790;2023-02-02T12:41:02;4.70;99.90
17252;DHT22;8742;51.716;8.790;2023-02-02T12:43:38;4.70;99.90
17252;DHT22;8742;51.716;8.790;2023-02-02T12:46:42;4.70;99.90
17252;DHT22;8742;51.716;8.790;2023-02-02T12:49:22;4.70;99.90
17252;DHT22;8742;51.716;8.790;2023-02-02T12:52:02;4.70;99.90
17252;DHT22;8742;51.716;8.790;2023-02-02T12:54:52;4.70;99.90
17252;DHT22;8742;51.716;8.790;2023-02-02T12:57:28;4.70;99.90
17252;DHT22;8742;51.716;8.790;2023-02-02T13:00:20;4.70;99.90
17252;DHT22;8742;51.716;8.790;2023-02-02T13:03:04;4.70;99.90
17252;DHT22;8742;51.716;8.790;2023-02-02T13:05:43;4.70;99.90
17252;DHT22;8742;51.716;8.790;2023-02-02T13:08:16;4.70;99.90
17252;DHT22;8742;51.716;8.790;2023-02-02T13:10:48;4.70;99.90
17252;DHT22;8742;51.716;8.790;2023-02-02T13:13:19;4.70;99.90
17252;DHT22;8742;51.716;8.790;2023-02-02T13:15:54;4.70;99.90
17252;DHT22;8742;51.716;8.790;2023-02-02T13:18:27;4.70;99.90
17252;DHT22;8742;51.716;8.790;2023-02-02T13:20:59;4.70;99.90
17252;DHT22;8742;51.716;8.790;2023-02-02T13:23:31;4.80;99.90
17252;DHT22;8742;51.716;8.790;2023-02-02T13:26:03;4.80;99.90
17252;DHT22;8742;51.716;8.790;2023-02-02T13:28:37;4.80;99.90
17252;DHT22;8742;51.716;8.790;2023-02-02T13:31:12;4.70;99.90
17252;DHT22;8742;51.716;8.790;2023-02-02T13:33:44;4.80;99.90
17252;DHT22;8742;51.716;8.790;2023-02-02T13:36:17;4.70;99.90
17252;DHT22;8742;51.716;8.790;2023-02-02T13:38:51;4.70;99.90
17252;DHT22;8742;51.716;8.790;2023-02-02T13:41:20;4.70;99.90
17252;DHT22;8742;51.716;8.790;2023-02-02T13:43:50;4.70;99.90
17252;DHT22;8742;51.716;8.790;2023-02-02T13:46:26;4.60;99.90
17252;DHT22;8742;51.716;8.790;2023-02-02T13:49:05;4.60;99.90
17252;DHT22;8742;51.716;8.790;2023-02-02T13:51:45;4.60;99.90
17252;DHT22;8742;51.716;8.790;2023-02-02T13:54:44;4.60;99.90
17252;DHT22;8742;51.716;8.790;2023-02-02T13:57:28;4.60;99.90
17252;DHT22;8742;51.716;8.790;2023-02-02T14:00:00;4.50;99.90
17252;DHT22;8742;51.716;8.790;2023-02-02T14:02:34;4.50;99.90
17252;DHT22;8742;51.716;8.790;2023-02-02T14:05:16;4.50;99.90
17252;DHT22;8742;51.716;8.790;2023-02-02T14:07:47;4.40;99.90
17252;DHT22;8742;51.716;8.790;2023-02-02T14:10:22;4.40;99.90
17252;DHT22;8742;51.716;8.790;2023-02-02T14:12:50;4.40;99.90
17252;DHT22;8742;51.716;8.790;2023-02-02T14:15:18;4.40;99.90
17252;DHT22;8742;51.716;8.790;2023-02-02T14:17:53;4.30;99.90
17252;DHT22;8742;51.716;8.790;2023-02-02T14:20:43;4.30;99.90
17252;DHT22;8742;51.716;8.790;2023-02-02T14:23:50;4.30;99.90
17252;DHT22;8742;51.716;8.790;2023-02-02T14:26:39;4.20;99.90
17252;DHT22;8742;51.716;8.790;2023-02-02T14:29:33;4.20;99.90
17252;DHT22;8742;51.716;8.790;2023-02-02T14:32:02;4.10;99.90
17252;DHT22;8742;51.716;8.790;2023-02-02T14:34:35;4.10;99.90
17252;DHT22;8742;51.716;8.790;2023-02-02T14:37:19;4.10;99.90
17252;DHT22;8742;51.716;8.790;2023-02-02T14:39:55;4.10;99.90
17252;DHT22;8742;51.716;8.790;2023-02-02T14:42:33;4.00;99.90
17252;DHT22;8742;51.716;8.790;2023-02-02T14:45:26;4.00;99.90
17252;DHT22;8742;51.716;8.790;2023-02-02T14:47:54;4.00;99.90
17252;DHT22;8742;51.716;8.790;2023-02-02T14:50:26;4.00;99.90
17252;DHT22;8742;51.716;8.790;2023-02-02T14:53:02;4.00;99.90
17252;DHT22;8742;51.716;8.790;2023-02-02T14:55:31;3.90;99.90
17252;DHT22;8742;51.716;8.790;2023-02-02T14:58:00;3.90;99.90
17252;DHT22;8742;51.716;8.790;2023-02-02T15:00:30;3.90;99.90
17252;DHT22;8742;51.716;8.790;2023-02-02T15:06:03;3.80;99.90
17252;DHT22;8742;51.716;8.790;2023-02-02T15:08:31;3.80;99.90
17252;DHT22;8742;51.716;8.790;2023-02-02T15:11:03;3.80;99.90
17252;DHT22;8742;51.716;8.790;2023-02-02T15:13:57;3.80;99.90
17252;DHT22;8742;51.716;8.790;2023-02-02T15:16:33;3.80;99.90
17252;DHT22;8742;51.716;8.790;2023-02-02T15:19:07;3.80;99.90
17252;DHT22;8742;51.716;8.790;2023-02-02T15:21:38;3.70;99.90
17252;DHT22;8742;51.716;8.790;2023-02-02T15:24:16;3.70;99.90
17252;DHT22;8742;51.716;8.790;2023-02-02T15:26:46;3.70;99.90
17252;DHT22;8742;51.716;8.790;2023-02-02T15:29:21;3.70;99.90
17252;DHT22;8742;51.716;8.790;2023-02-02T15:31:51;3.70;99.90
17252;DHT22;8742;51.716;8.790;2023-02-02T15:34:22;3.70;99.90
17252;DHT22;8742;51.716;8.790;2023-02-02T15:36:52;3.70;99.90
17252;DHT22;8742;51.716;8.790;2023-02-02T15:39:26;3.70;99.90
17252;DHT22;8742;51.716;8.790;2023-02-02T15:41:56;3.70;99.90
17252;DHT22;8742;51.716;8.790;2023-02-02T15:44:38;3.70;99.90
17252;DHT22;8742;51.716;8.790;2023-02-02T15:47:10;3.70;99.90
17252;DHT22;8742;51.716;8.790;2023-02-02T15:49:37;3.70;99.90
17252;DHT22;8742;51.716;8.790;2023-02-02T15:52:11;3.70;99.90
17252;DHT22;8742;51.716;8.790;2023-02-02T15:54:48;3.70;99.90
17252;DHT22;8742;51.716;8.790;2023-02-02T15:57:26;3.70;99.90
17252;DHT22;8742;51.716;8.790;2023-02-02T15:59:54;3.70;99.90
17252;DHT22;8742;51.716;8.790;2023-02-02T16:02:27;3.70;99.90
17252;DHT22;8742;51.716;8.790;2023-02-02T16:04:56;3.80;99.90
17252;DHT22;8742;51.716;8.790;2023-02-02T16:07:27;3.80;99.90
17252;DHT22;8742;51.716;8.790;2023-02-02T16:10:00;3.80;99.90
17252;DHT22;8742;51.716;8.790;2023-02-02T16:12:27;3.80;99.90
17252;DHT22;8742;51.716;8.790;2023-02-02T16:14:54;3.80;99.90
17252;DHT22;8742;51.716;8.790;2023-02-02T16:17:22;3.80;99.90
17252;DHT22;8742;51.716;8.790;2023-02-02T16:19:57;3.80;99.90
17252;DHT22;8742;51.716;8.790;2023-02-02T16:22:26;3.80;99.90
17252;DHT22;8742;51.716;8.790;2023-02-02T16:24:59;3.80;99.90
17252;DHT22;8742;51.716;8.790;2023-02-02T16:27:28;3.80;99.90
17252;DHT22;8742;51.716;8.790;2023-02-02T16:29:59;3.80;99.90
17252;DHT22;8742;51.716;8.790;2023-02-02T16:32:29;3.90;99.90
17252;DHT22;8742;51.716;8.790;2023-02-02T16:34:56;3.90;99.90
17252;DHT22;8742;51.716;8.790;2023-02-02T16:37:24;3.90;99.90